sensor_id;sensor_type;location;lat;lon;timestamp;temperature;humidity
43581;DHT22;29175;51.030;4.606;2022-09-03T00:01:45;20.40;78.90
43581;DHT22;29175;51.030;4.606;2022-09-03T00:07:11;20.30;79.30
43581;DHT22;29175;51.030;4.606;2022-09-03T00:09:46;20.30;79.50
43581;DHT22;29175;51.030;4.606;2022-09-03T00:12:18;20.10;80.20
43581;DHT22;29175;51.030;4.606;2022-09-03T00:14:59;20.10;79.20
43581;DHT22;29175;51.030;4.606;2022-09-03T00:17:28;20.10;79.50
43581;DHT22;29175;51.030;4.606;2022-09-03T00:22:52;20.10;79.60
43581;DHT22;29175;51.030;4.606;2022-09-03T00:25:26;19.90;80.80
43581;DHT22;29175;51.030;4.606;2022-09-03T00:27:56;20.10;80.30
43581;DHT22;29175;51.030;4.606;2022-09-03T00:30:23;20.20;80.20
43581;DHT22;29175;51.030;4.606;2022-09-03T00:32:57;20.00;81.00
43581;DHT22;29175;51.030;4.606;2022-09-03T00:38:15;20.20;80.10
43581;DHT22;29175;51.030;4.606;2022-09-03T00:43:45;20.10;80.30
43581;DHT22;29175;51.030;4.606;2022-09-03T00:57:45;20.20;80.30
43581;DHT22;29175;51.030;4.606;2022-09-03T01:00:14;20.20;80.70
43581;DHT22;29175;51.030;4.606;2022-09-03T01:03:04;20.20;79.30
43581;DHT22;29175;51.030;4.606;2022-09-03T01:13:35;20.30;80.90
43581;DHT22;29175;51.030;4.606;2022-09-03T01:16:27;20.30;81.00
43581;DHT22;29175;51.030;4.606;2022-09-03T01:25:22;20.30;81.90
43581;DHT22;29175;51.030;4.606;2022-09-03T01:30:42;20.20;83.10
43581;DHT22;29175;51.030;4.606;2022-09-03T01:33:24;20.20;83.40
43581;DHT22;29175;51.030;4.606;2022-09-03T01:35:53;20.00;82.80
43581;DHT22;29175;51.030;4.606;2022-09-03T01:41:11;19.90;83.00
43581;DHT22;29175;51.030;4.606;2022-09-03T01:46:54;19.90;83.70
43581;DHT22;29175;51.030;4.606;2022-09-03T01:49:41;19.90;83.70
43581;DHT22;29175;51.030;4.606;2022-09-03T01:52:20;19.90;82.30
43581;DHT22;29175;51.030;4.606;2022-09-03T01:55:09;19.90;82.90
43581;DHT22;29175;51.030;4.606;2022-09-03T01:57:47;20.10;83.00
43581;DHT22;29175;51.030;4.606;2022-09-03T02:00:16;20.20;82.90
43581;DHT22;29175;51.030;4.606;2022-09-03T02:02:47;20.20;83.20
43581;DHT22;29175;51.030;4.606;2022-09-03T02:07:49;20.20;83.60
43581;DHT22;29175;51.030;4.606;2022-09-03T02:10:21;20.20;83.50
43581;DHT22;29175;51.030;4.606;2022-09-03T02:12:51;20.30;83.50
43581;DHT22;29175;51.030;4.606;2022-09-03T02:15:21;20.30;83.40
43581;DHT22;29175;51.030;4.606;2022-09-03T02:17:48;20.30;83.30
43581;DHT22;29175;51.030;4.606;2022-09-03T02:20:19;20.30;83.50
43581;DHT22;29175;51.030;4.606;2022-09-03T02:22:47;20.40;83.60
43581;DHT22;29175;51.030;4.606;2022-09-03T02:25:14;20.40;83.80
43581;DHT22;29175;51.030;4.606;2022-09-03T02:27:40;20.30;83.90
43581;DHT22;29175;51.030;4.606;2022-09-03T02:30:07;20.40;83.90
43581;DHT22;29175;51.030;4.606;2022-09-03T02:32:33;20.40;84.00
43581;DHT22;29175;51.030;4.606;2022-09-03T02:34:59;20.40;84.00
43581;DHT22;29175;51.030;4.606;2022-09-03T02:37:25;20.40;83.90
43581;DHT22;29175;51.030;4.606;2022-09-03T02:39:51;20.40;83.90
43581;DHT22;29175;51.030;4.606;2022-09-03T02:42:17;20.40;83.90
43581;DHT22;29175;51.030;4.606;2022-09-03T02:44:51;20.40;83.70
43581;DHT22;29175;51.030;4.606;2022-09-03T02:47:17;20.40;83.60
43581;DHT22;29175;51.030;4.606;2022-09-03T02:49:47;20.40;83.90
43581;DHT22;29175;51.030;4.606;2022-09-03T02:52:12;20.40;84.00
43581;DHT22;29175;51.030;4.606;2022-09-03T02:54:39;20.40;83.70
43581;DHT22;29175;51.030;4.606;2022-09-03T02:57:09;20.30;83.80
43581;DHT22;29175;51.030;4.606;2022-09-03T02:59:35;20.30;83.70
43581;DHT22;29175;51.030;4.606;2022-09-03T03:02:02;20.30;83.50
43581;DHT22;29175;51.030;4.606;2022-09-03T03:04:31;20.40;83.60
43581;DHT22;29175;51.030;4.606;2022-09-03T03:06:58;20.40;83.70
43581;DHT22;29175;51.030;4.606;2022-09-03T03:09:24;20.30;83.90
43581;DHT22;29175;51.030;4.606;2022-09-03T03:11:50;20.30;84.20
43581;DHT22;29175;51.030;4.606;2022-09-03T03:14:16;20.30;84.60
43581;DHT22;29175;51.030;4.606;2022-09-03T03:16:43;20.20;84.80
43581;DHT22;29175;51.030;4.606;2022-09-03T03:19:08;20.20;85.00
43581;DHT22;29175;51.030;4.606;2022-09-03T03:21:34;20.30;85.10
43581;DHT22;29175;51.030;4.606;2022-09-03T03:24:01;20.30;84.80
43581;DHT22;29175;51.030;4.606;2022-09-03T03:26:27;20.30;84.70
43581;DHT22;29175;51.030;4.606;2022-09-03T03:28:56;20.30;84.80
43581;DHT22;29175;51.030;4.606;2022-09-03T03:31:22;20.30;84.90
43581;DHT22;29175;51.030;4.606;2022-09-03T03:33:56;20.30;85.20
43581;DHT22;29175;51.030;4.606;2022-09-03T03:36:24;20.30;85.30
43581;DHT22;29175;51.030;4.606;2022-09-03T03:38:54;20.30;85.20
43581;DHT22;29175;51.030;4.606;2022-09-03T03:41:29;20.20;85.40
43581;DHT22;29175;51.030;4.606;2022-09-03T03:44:03;20.10;85.70
43581;DHT22;29175;51.030;4.606;2022-09-03T03:46:32;20.20;85.50
43581;DHT22;29175;51.030;4.606;2022-09-03T03:48:58;20.10;85.60
43581;DHT22;29175;51.030;4.606;2022-09-03T03:51:24;20.10;86.10
43581;DHT22;29175;51.030;4.606;2022-09-03T03:53:53;20.10;85.70
43581;DHT22;29175;51.030;4.606;2022-09-03T03:56:20;20.20;85.60
43581;DHT22;29175;51.030;4.606;2022-09-03T03:58:46;20.20;85.50
43581;DHT22;29175;51.030;4.606;2022-09-03T04:01:13;20.20;85.50
43581;DHT22;29175;51.030;4.606;2022-09-03T04:03:39;20.30;85.30
43581;DHT22;29175;51.030;4.606;2022-09-03T04:06:06;20.30;85.50
43581;DHT22;29175;51.030;4.606;2022-09-03T04:08:37;20.00;86.40
43581;DHT22;29175;51.030;4.606;2022-09-03T04:11:05;20.10;86.40
43581;DHT22;29175;51.030;4.606;2022-09-03T04:13:33;20.00;86.60
43581;DHT22;29175;51.030;4.606;2022-09-03T04:16:04;20.10;86.40
43581;DHT22;29175;51.030;4.606;2022-09-03T04:18:30;20.10;86.50
43581;DHT22;29175;51.030;4.606;2022-09-03T04:21:24;20.10;86.00
43581;DHT22;29175;51.030;4.606;2022-09-03T04:23:51;20.20;85.70
43581;DHT22;29175;51.030;4.606;2022-09-03T04:26:22;20.20;85.90
43581;DHT22;29175;51.030;4.606;2022-09-03T04:28:48;20.20;85.90
43581;DHT22;29175;51.030;4.606;2022-09-03T04:31:19;20.20;86.10
43581;DHT22;29175;51.030;4.606;2022-09-03T04:33:45;20.20;85.80
43581;DHT22;29175;51.030;4.606;2022-09-03T04:36:19;20.20;86.00
43581;DHT22;29175;51.030;4.606;2022-09-03T04:38:46;20.30;86.20
43581;DHT22;29175;51.030;4.606;2022-09-03T04:41:17;20.30;86.00
43581;DHT22;29175;51.030;4.606;2022-09-03T04:43:43;20.40;85.70
43581;DHT22;29175;51.030;4.606;2022-09-03T04:46:11;20.30;85.40
43581;DHT22;29175;51.030;4.606;2022-09-03T04:48:38;20.20;85.20
43581;DHT22;29175;51.030;4.606;2022-09-03T04:51:06;20.30;85.40
43581;DHT22;29175;51.030;4.606;2022-09-03T04:53:38;20.30;85.50
43581;DHT22;29175;51.030;4.606;2022-09-03T04:56:12;20.20;85.90
43581;DHT22;29175;51.030;4.606;2022-09-03T04:58:38;20.20;86.10
43581;DHT22;29175;51.030;4.606;2022-09-03T05:01:09;20.30;86.40
43581;DHT22;29175;51.030;4.606;2022-09-03T05:03:35;20.30;86.80
43581;DHT22;29175;51.030;4.606;2022-09-03T05:06:02;20.30;86.80
43581;DHT22;29175;51.030;4.606;2022-09-03T05:08:30;20.30;86.90
43581;DHT22;29175;51.030;4.606;2022-09-03T05:10:58;20.20;87.50
43581;DHT22;29175;51.030;4.606;2022-09-03T05:13:24;20.10;87.60
43581;DHT22;29175;51.030;4.606;2022-09-03T05:15:50;20.20;87.70
43581;DHT22;29175;51.030;4.606;2022-09-03T05:18:16;20.20;87.80
43581;DHT22;29175;51.030;4.606;2022-09-03T05:20:42;20.20;87.60
43581;DHT22;29175;51.030;4.606;2022-09-03T05:23:08;20.20;87.30
43581;DHT22;29175;51.030;4.606;2022-09-03T05:25:34;20.20;87.80
43581;DHT22;29175;51.030;4.606;2022-09-03T05:28:02;20.20;87.60
43581;DHT22;29175;51.030;4.606;2022-09-03T05:30:28;20.00;87.30
43581;DHT22;29175;51.030;4.606;2022-09-03T05:32:55;19.80;86.10
43581;DHT22;29175;51.030;4.606;2022-09-03T05:35:21;19.60;87.40
43581;DHT22;29175;51.030;4.606;2022-09-03T05:37:47;19.50;87.00
43581;DHT22;29175;51.030;4.606;2022-09-03T05:40:12;19.60;87.00
43581;DHT22;29175;51.030;4.606;2022-09-03T05:42:38;19.60;87.50
43581;DHT22;29175;51.030;4.606;2022-09-03T05:45:06;19.80;87.00
43581;DHT22;29175;51.030;4.606;2022-09-03T05:47:38;20.00;85.70
43581;DHT22;29175;51.030;4.606;2022-09-03T05:50:08;20.00;87.00
43581;DHT22;29175;51.030;4.606;2022-09-03T05:52:35;20.10;86.40
43581;DHT22;29175;51.030;4.606;2022-09-03T05:55:01;20.20;86.80
43581;DHT22;29175;51.030;4.606;2022-09-03T05:57:27;20.20;87.20
43581;DHT22;29175;51.030;4.606;2022-09-03T05:59:55;20.20;86.20
43581;DHT22;29175;51.030;4.606;2022-09-03T06:02:20;20.20;86.40
43581;DHT22;29175;51.030;4.606;2022-09-03T06:04:47;20.30;86.10
43581;DHT22;29175;51.030;4.606;2022-09-03T06:07:12;20.00;88.50
43581;DHT22;29175;51.030;4.606;2022-09-03T06:09:38;19.80;86.50
43581;DHT22;29175;51.030;4.606;2022-09-03T06:12:04;19.60;87.30
43581;DHT22;29175;51.030;4.606;2022-09-03T06:14:30;19.60;88.20
43581;DHT22;29175;51.030;4.606;2022-09-03T06:16:55;19.90;86.80
43581;DHT22;29175;51.030;4.606;2022-09-03T06:19:21;19.80;87.20
43581;DHT22;29175;51.030;4.606;2022-09-03T06:21:47;20.10;86.20
43581;DHT22;29175;51.030;4.606;2022-09-03T06:24:15;20.00;85.80
43581;DHT22;29175;51.030;4.606;2022-09-03T06:26:41;20.10;86.80
43581;DHT22;29175;51.030;4.606;2022-09-03T06:29:07;20.20;85.60
43581;DHT22;29175;51.030;4.606;2022-09-03T06:31:33;20.30;85.30
43581;DHT22;29175;51.030;4.606;2022-09-03T06:34:00;20.50;85.30
43581;DHT22;29175;51.030;4.606;2022-09-03T06:36:26;20.50;84.50
43581;DHT22;29175;51.030;4.606;2022-09-03T06:38:54;20.50;84.30
43581;DHT22;29175;51.030;4.606;2022-09-03T06:41:22;20.60;83.90
43581;DHT22;29175;51.030;4.606;2022-09-03T06:43:51;20.70;84.30
43581;DHT22;29175;51.030;4.606;2022-09-03T06:46:19;20.80;85.40
43581;DHT22;29175;51.030;4.606;2022-09-03T06:48:45;20.90;85.40
43581;DHT22;29175;51.030;4.606;2022-09-03T06:51:17;21.00;85.60
43581;DHT22;29175;51.030;4.606;2022-09-03T06:53:46;21.00;83.80
43581;DHT22;29175;51.030;4.606;2022-09-03T06:56:17;20.80;84.30
43581;DHT22;29175;51.030;4.606;2022-09-03T06:58:45;20.90;84.30
43581;DHT22;29175;51.030;4.606;2022-09-03T07:01:14;21.30;84.40
43581;DHT22;29175;51.030;4.606;2022-09-03T07:03:42;21.60;83.60
43581;DHT22;29175;51.030;4.606;2022-09-03T07:06:10;22.00;82.40
43581;DHT22;29175;51.030;4.606;2022-09-03T07:08:36;22.20;82.00
43581;DHT22;29175;51.030;4.606;2022-09-03T07:11:06;22.40;81.30
43581;DHT22;29175;51.030;4.606;2022-09-03T07:13:36;22.50;80.50
43581;DHT22;29175;51.030;4.606;2022-09-03T07:16:07;22.80;80.60
43581;DHT22;29175;51.030;4.606;2022-09-03T07:18:33;23.30;80.50
43581;DHT22;29175;51.030;4.606;2022-09-03T07:21:01;23.70;79.40
43581;DHT22;29175;51.030;4.606;2022-09-03T07:23:28;24.00;79.40
43581;DHT22;29175;51.030;4.606;2022-09-03T07:25:56;23.90;78.20
43581;DHT22;29175;51.030;4.606;2022-09-03T07:28:23;24.20;77.60
43581;DHT22;29175;51.030;4.606;2022-09-03T07:30:50;24.40;77.80
43581;DHT22;29175;51.030;4.606;2022-09-03T07:33:16;24.60;77.10
43581;DHT22;29175;51.030;4.606;2022-09-03T07:35:42;25.00;76.00
43581;DHT22;29175;51.030;4.606;2022-09-03T07:38:08;25.60;75.30
43581;DHT22;29175;51.030;4.606;2022-09-03T07:40:34;26.00;75.10
43581;DHT22;29175;51.030;4.606;2022-09-03T07:43:00;26.30;74.40
43581;DHT22;29175;51.030;4.606;2022-09-03T07:45:30;26.40;74.20
43581;DHT22;29175;51.030;4.606;2022-09-03T07:47:56;26.70;73.50
43581;DHT22;29175;51.030;4.606;2022-09-03T07:50:23;26.90;73.80
43581;DHT22;29175;51.030;4.606;2022-09-03T07:52:48;27.20;73.10
43581;DHT22;29175;51.030;4.606;2022-09-03T07:55:14;27.20;72.50
43581;DHT22;29175;51.030;4.606;2022-09-03T07:57:40;27.10;73.40
43581;DHT22;29175;51.030;4.606;2022-09-03T08:00:06;27.50;73.50
43581;DHT22;29175;51.030;4.606;2022-09-03T08:02:37;27.40;73.40
43581;DHT22;29175;51.030;4.606;2022-09-03T08:05:02;27.20;74.00
43581;DHT22;29175;51.030;4.606;2022-09-03T08:07:29;27.60;73.00
43581;DHT22;29175;51.030;4.606;2022-09-03T08:09:55;28.00;71.10
43581;DHT22;29175;51.030;4.606;2022-09-03T08:12:21;28.50;73.60
43581;DHT22;29175;51.030;4.606;2022-09-03T08:14:47;30.40;69.60
43581;DHT22;29175;51.030;4.606;2022-09-03T08:17:12;32.30;66.00
43581;DHT22;29175;51.030;4.606;2022-09-03T08:19:38;33.70;63.90
43581;DHT22;29175;51.030;4.606;2022-09-03T08:22:05;34.30;62.70
43581;DHT22;29175;51.030;4.606;2022-09-03T08:24:31;34.70;62.00
43581;DHT22;29175;51.030;4.606;2022-09-03T08:26:58;34.00;62.00
43581;DHT22;29175;51.030;4.606;2022-09-03T08:29:25;34.00;61.80
43581;DHT22;29175;51.030;4.606;2022-09-03T08:31:52;33.50;62.50
43581;DHT22;29175;51.030;4.606;2022-09-03T08:34:18;34.00;62.70
43581;DHT22;29175;51.030;4.606;2022-09-03T08:36:44;34.80;62.50
43581;DHT22;29175;51.030;4.606;2022-09-03T08:39:11;35.40;61.50
43581;DHT22;29175;51.030;4.606;2022-09-03T08:44:25;36.80;60.70
43581;DHT22;29175;51.030;4.606;2022-09-03T08:52:30;39.40;58.70
43581;DHT22;29175;51.030;4.606;2022-09-03T08:55:12;39.60;58.00
43581;DHT22;29175;51.030;4.606;2022-09-03T08:57:46;39.10;58.50
43581;DHT22;29175;51.030;4.606;2022-09-03T09:00:13;39.40;58.60
43581;DHT22;29175;51.030;4.606;2022-09-03T09:03:19;40.10;58.40
43581;DHT22;29175;51.030;4.606;2022-09-03T09:16:51;42.70;55.70
43581;DHT22;29175;51.030;4.606;2022-09-03T09:19:38;41.60;55.80
43581;DHT22;29175;51.030;4.606;2022-09-03T09:22:22;41.00;57.00
43581;DHT22;29175;51.030;4.606;2022-09-03T09:24:51;40.80;56.70
43581;DHT22;29175;51.030;4.606;2022-09-03T09:27:19;41.50;56.30
43581;DHT22;29175;51.030;4.606;2022-09-03T09:29:49;42.40;55.30
43581;DHT22;29175;51.030;4.606;2022-09-03T09:32:17;42.70;55.30
43581;DHT22;29175;51.030;4.606;2022-09-03T09:34:44;43.50;54.50
43581;DHT22;29175;51.030;4.606;2022-09-03T09:37:12;43.80;54.60
43581;DHT22;29175;51.030;4.606;2022-09-03T09:39:40;44.30;53.50
43581;DHT22;29175;51.030;4.606;2022-09-03T09:42:20;41.90;54.20
43581;DHT22;29175;51.030;4.606;2022-09-03T09:44:46;41.00;55.80
43581;DHT22;29175;51.030;4.606;2022-09-03T09:49:55;41.40;54.60
43581;DHT22;29175;51.030;4.606;2022-09-03T09:52:23;42.20;55.10
43581;DHT22;29175;51.030;4.606;2022-09-03T09:54:51;42.90;54.70
43581;DHT22;29175;51.030;4.606;2022-09-03T09:57:23;43.50;54.50
43581;DHT22;29175;51.030;4.606;2022-09-03T10:00:01;44.00;54.60
43581;DHT22;29175;51.030;4.606;2022-09-03T10:02:27;44.30;54.20
43581;DHT22;29175;51.030;4.606;2022-09-03T10:05:14;44.60;54.60
43581;DHT22;29175;51.030;4.606;2022-09-03T10:07:57;45.50;53.30
43581;DHT22;29175;51.030;4.606;2022-09-03T10:10:24;45.80;52.60
43581;DHT22;29175;51.030;4.606;2022-09-03T10:13:08;44.50;53.00
43581;DHT22;29175;51.030;4.606;2022-09-03T10:18:44;44.40;53.80
43581;DHT22;29175;51.030;4.606;2022-09-03T10:26:42;41.30;55.00
43581;DHT22;29175;51.030;4.606;2022-09-03T10:29:21;39.60;56.70
43581;DHT22;29175;51.030;4.606;2022-09-03T10:31:58;38.40;58.10
43581;DHT22;29175;51.030;4.606;2022-09-03T10:34:50;37.30;59.40
43581;DHT22;29175;51.030;4.606;2022-09-03T10:46:02;36.00;61.50
43581;DHT22;29175;51.030;4.606;2022-09-03T10:51:26;35.70;62.50
43581;DHT22;29175;51.030;4.606;2022-09-03T11:05:39;34.20;66.00
43581;DHT22;29175;51.030;4.606;2022-09-03T11:11:04;34.30;66.20
43581;DHT22;29175;51.030;4.606;2022-09-03T11:16:30;33.50;67.80
43581;DHT22;29175;51.030;4.606;2022-09-03T11:21:30;34.10;67.60
43581;DHT22;29175;51.030;4.606;2022-09-03T11:26:28;33.80;67.80
43581;DHT22;29175;51.030;4.606;2022-09-03T11:29:21;34.40;68.10
43581;DHT22;29175;51.030;4.606;2022-09-03T11:32:13;35.60;66.00
43581;DHT22;29175;51.030;4.606;2022-09-03T11:34:44;36.00;64.60
43581;DHT22;29175;51.030;4.606;2022-09-03T11:39:52;35.00;66.40
43581;DHT22;29175;51.030;4.606;2022-09-03T11:42:37;34.40;66.70
43581;DHT22;29175;51.030;4.606;2022-09-03T11:47:49;33.90;68.00
43581;DHT22;29175;51.030;4.606;2022-09-03T11:52:47;32.80;68.90
43581;DHT22;29175;51.030;4.606;2022-09-03T11:55:24;32.50;70.30
43581;DHT22;29175;51.030;4.606;2022-09-03T11:57:50;32.60;70.30
43581;DHT22;29175;51.030;4.606;2022-09-03T12:00:17;32.50;70.40
43581;DHT22;29175;51.030;4.606;2022-09-03T12:02:59;33.30;68.60
43581;DHT22;29175;51.030;4.606;2022-09-03T12:14:05;33.10;69.10
43581;DHT22;29175;51.030;4.606;2022-09-03T12:19:18;33.30;69.10
43581;DHT22;29175;51.030;4.606;2022-09-03T12:21:48;33.30;69.20
43581;DHT22;29175;51.030;4.606;2022-09-03T12:24:15;33.30;68.80
43581;DHT22;29175;51.030;4.606;2022-09-03T12:26:43;32.90;69.20
43581;DHT22;29175;51.030;4.606;2022-09-03T12:29:24;32.70;68.90
43581;DHT22;29175;51.030;4.606;2022-09-03T12:31:51;32.90;68.90
43581;DHT22;29175;51.030;4.606;2022-09-03T12:34:19;32.70;68.40
43581;DHT22;29175;51.030;4.606;2022-09-03T12:36:49;32.70;68.10
43581;DHT22;29175;51.030;4.606;2022-09-03T12:39:24;32.20;68.90
43581;DHT22;29175;51.030;4.606;2022-09-03T12:42:04;32.30;69.70
43581;DHT22;29175;51.030;4.606;2022-09-03T12:47:05;32.20;69.40
43581;DHT22;29175;51.030;4.606;2022-09-03T12:49:39;32.40;68.90
43581;DHT22;29175;51.030;4.606;2022-09-03T12:52:28;31.90;69.60
43581;DHT22;29175;51.030;4.606;2022-09-03T12:58:25;32.10;69.50
43581;DHT22;29175;51.030;4.606;2022-09-03T13:06:20;32.40;68.90
43581;DHT22;29175;51.030;4.606;2022-09-03T13:09:00;32.20;68.30
43581;DHT22;29175;51.030;4.606;2022-09-03T13:11:26;31.60;69.60
43581;DHT22;29175;51.030;4.606;2022-09-03T13:14:04;31.20;71.20
43581;DHT22;29175;51.030;4.606;2022-09-03T13:21:47;30.40;73.70
43581;DHT22;29175;51.030;4.606;2022-09-03T13:30:03;31.50;72.70
43581;DHT22;29175;51.030;4.606;2022-09-03T13:32:38;31.30;73.10
43581;DHT22;29175;51.030;4.606;2022-09-03T13:35:15;31.60;72.40
43581;DHT22;29175;51.030;4.606;2022-09-03T13:37:51;32.00;72.20
43581;DHT22;29175;51.030;4.606;2022-09-03T13:40:32;32.10;72.20
43581;DHT22;29175;51.030;4.606;2022-09-03T13:45:58;32.30;71.70
43581;DHT22;29175;51.030;4.606;2022-09-03T13:48:40;32.00;72.50
43581;DHT22;29175;51.030;4.606;2022-09-03T13:51:38;32.20;71.90
43581;DHT22;29175;51.030;4.606;2022-09-03T14:00:10;32.30;70.10
43581;DHT22;29175;51.030;4.606;2022-09-03T14:03:02;32.60;69.60
43581;DHT22;29175;51.030;4.606;2022-09-03T14:05:55;32.50;70.00
43581;DHT22;29175;51.030;4.606;2022-09-03T14:08:31;32.20;71.30
43581;DHT22;29175;51.030;4.606;2022-09-03T14:11:39;32.20;71.00
43581;DHT22;29175;51.030;4.606;2022-09-03T14:17:29;31.40;72.70
43581;DHT22;29175;51.030;4.606;2022-09-03T14:19:59;31.80;72.00
43581;DHT22;29175;51.030;4.606;2022-09-03T14:25:12;31.90;71.10
43581;DHT22;29175;51.030;4.606;2022-09-03T14:27:39;31.40;72.00
43581;DHT22;29175;51.030;4.606;2022-09-03T14:30:16;31.20;72.50
43581;DHT22;29175;51.030;4.606;2022-09-03T14:40:47;31.10;73.20
43581;DHT22;29175;51.030;4.606;2022-09-03T14:43:19;31.10;73.40
43581;DHT22;29175;51.030;4.606;2022-09-03T14:49:08;30.90;73.00
43581;DHT22;29175;51.030;4.606;2022-09-03T14:54:37;30.30;74.00
43581;DHT22;29175;51.030;4.606;2022-09-03T14:57:27;30.10;74.60
43581;DHT22;29175;51.030;4.606;2022-09-03T15:00:16;29.80;74.40
43581;DHT22;29175;51.030;4.606;2022-09-03T15:03:06;29.80;73.90
43581;DHT22;29175;51.030;4.606;2022-09-03T15:05:48;29.80;74.60
43581;DHT22;29175;51.030;4.606;2022-09-03T15:08:48;30.00;74.10
43581;DHT22;29175;51.030;4.606;2022-09-03T15:11:22;30.30;73.80
43581;DHT22;29175;51.030;4.606;2022-09-03T15:13:52;30.50;73.20
43581;DHT22;29175;51.030;4.606;2022-09-03T15:16:48;30.60;72.90
43581;DHT22;29175;51.030;4.606;2022-09-03T15:22:45;31.00;72.60
43581;DHT22;29175;51.030;4.606;2022-09-03T15:25:25;31.10;72.50
43581;DHT22;29175;51.030;4.606;2022-09-03T15:28:26;31.10;72.50
43581;DHT22;29175;51.030;4.606;2022-09-03T15:36:59;30.80;72.80
43581;DHT22;29175;51.030;4.606;2022-09-03T15:39:37;30.50;73.70
43581;DHT22;29175;51.030;4.606;2022-09-03T15:42:26;30.50;74.00
43581;DHT22;29175;51.030;4.606;2022-09-03T15:44:54;30.40;73.80
43581;DHT22;29175;51.030;4.606;2022-09-03T15:50:28;30.50;73.70
43581;DHT22;29175;51.030;4.606;2022-09-03T16:02:11;30.60;74.90
43581;DHT22;29175;51.030;4.606;2022-09-03T16:10:15;30.20;76.70
43581;DHT22;29175;51.030;4.606;2022-09-03T16:16:04;30.00;77.60
43581;DHT22;29175;51.030;4.606;2022-09-03T16:18:40;29.70;78.40
43581;DHT22;29175;51.030;4.606;2022-09-03T16:21:55;29.50;78.70
43581;DHT22;29175;51.030;4.606;2022-09-03T16:29:27;29.10;79.80
43581;DHT22;29175;51.030;4.606;2022-09-03T16:45:08;27.60;91.60
43581;DHT22;29175;51.030;4.606;2022-09-03T16:47:41;27.30;92.50
43581;DHT22;29175;51.030;4.606;2022-09-03T16:50:21;27.50;92.70
43581;DHT22;29175;51.030;4.606;2022-09-03T16:53:07;27.60;93.00
43581;DHT22;29175;51.030;4.606;2022-09-03T16:55:56;27.50;93.60
43581;DHT22;29175;51.030;4.606;2022-09-03T16:58:33;27.70;93.80
43581;DHT22;29175;51.030;4.606;2022-09-03T17:07:18;27.80;94.60
43581;DHT22;29175;51.030;4.606;2022-09-03T17:10:09;27.60;94.60
43581;DHT22;29175;51.030;4.606;2022-09-03T17:18:50;27.40;96.30
43581;DHT22;29175;51.030;4.606;2022-09-03T17:21:47;27.30;97.40
43581;DHT22;29175;51.030;4.606;2022-09-03T17:24:26;27.00;97.10
43581;DHT22;29175;51.030;4.606;2022-09-03T17:32:44;27.10;96.90
43581;DHT22;29175;51.030;4.606;2022-09-03T17:35:16;27.10;93.20
43581;DHT22;29175;51.030;4.606;2022-09-03T17:46:13;26.80;94.00
43581;DHT22;29175;51.030;4.606;2022-09-03T17:56:55;26.30;94.60
43581;DHT22;29175;51.030;4.606;2022-09-03T17:59:36;26.30;95.10
43581;DHT22;29175;51.030;4.606;2022-09-03T18:02:15;26.20;95.30
43581;DHT22;29175;51.030;4.606;2022-09-03T18:04:55;25.90;95.20
43581;DHT22;29175;51.030;4.606;2022-09-03T18:07:30;25.90;95.20
43581;DHT22;29175;51.030;4.606;2022-09-03T18:12:45;25.90;95.00
43581;DHT22;29175;51.030;4.606;2022-09-03T18:15:19;25.80;94.60
43581;DHT22;29175;51.030;4.606;2022-09-03T18:18:31;25.70;94.20
43581;DHT22;29175;51.030;4.606;2022-09-03T18:21:00;25.60;93.90
43581;DHT22;29175;51.030;4.606;2022-09-03T18:26:49;25.50;91.40
43581;DHT22;29175;51.030;4.606;2022-09-03T18:29:49;25.40;94.00
43581;DHT22;29175;51.030;4.606;2022-09-03T18:32:36;25.40;94.10
43581;DHT22;29175;51.030;4.606;2022-09-03T18:35:21;25.10;95.00
43581;DHT22;29175;51.030;4.606;2022-09-03T18:38:06;24.90;95.50
43581;DHT22;29175;51.030;4.606;2022-09-03T18:56:45;25.20;95.10
43581;DHT22;29175;51.030;4.606;2022-09-03T19:02:53;25.20;95.30
43581;DHT22;29175;51.030;4.606;2022-09-03T19:12:27;24.60;96.50
43581;DHT22;29175;51.030;4.606;2022-09-03T19:15:18;24.70;96.60
43581;DHT22;29175;51.030;4.606;2022-09-03T19:21:05;24.80;96.70
43581;DHT22;29175;51.030;4.606;2022-09-03T19:23:59;24.80;96.60
43581;DHT22;29175;51.030;4.606;2022-09-03T19:33:25;24.70;96.60
43581;DHT22;29175;51.030;4.606;2022-09-03T19:39:52;24.50;96.60
43581;DHT22;29175;51.030;4.606;2022-09-03T19:43:08;24.40;97.20
43581;DHT22;29175;51.030;4.606;2022-09-03T19:46:29;24.40;97.20
43581;DHT22;29175;51.030;4.606;2022-09-03T19:49:35;24.40;97.40
43581;DHT22;29175;51.030;4.606;2022-09-03T19:55:24;24.10;98.20
43581;DHT22;29175;51.030;4.606;2022-09-03T19:58:10;24.10;98.40
43581;DHT22;29175;51.030;4.606;2022-09-03T20:00:56;24.00;99.20
43581;DHT22;29175;51.030;4.606;2022-09-03T20:03:41;23.80;99.50
43581;DHT22;29175;51.030;4.606;2022-09-03T20:06:27;23.70;99.70
43581;DHT22;29175;51.030;4.606;2022-09-03T20:09:12;23.60;99.90
43581;DHT22;29175;51.030;4.606;2022-09-03T20:12:03;23.60;99.90
43581;DHT22;29175;51.030;4.606;2022-09-03T20:14:32;23.70;99.90
43581;DHT22;29175;51.030;4.606;2022-09-03T20:17:12;23.70;99.90
43581;DHT22;29175;51.030;4.606;2022-09-03T20:27:48;22.90;99.90
43581;DHT22;29175;51.030;4.606;2022-09-03T20:30:21;22.90;99.90
43581;DHT22;29175;51.030;4.606;2022-09-03T20:36:09;23.00;99.90
43581;DHT22;29175;51.030;4.606;2022-09-03T20:44:40;23.00;99.90
43581;DHT22;29175;51.030;4.606;2022-09-03T20:47:18;23.00;99.90
43581;DHT22;29175;51.030;4.606;2022-09-03T21:01:07;23.00;99.90
43581;DHT22;29175;51.030;4.606;2022-09-03T21:12:12;22.60;99.90
43581;DHT22;29175;51.030;4.606;2022-09-03T21:14:56;22.50;99.90
43581;DHT22;29175;51.030;4.606;2022-09-03T21:23:17;22.30;99.90
43581;DHT22;29175;51.030;4.606;2022-09-03T21:26:00;22.30;99.90
43581;DHT22;29175;51.030;4.606;2022-09-03T21:28:37;22.30;99.90
43581;DHT22;29175;51.030;4.606;2022-09-03T21:31:14;22.40;99.90
43581;DHT22;29175;51.030;4.606;2022-09-03T21:33:46;22.50;99.90
43581;DHT22;29175;51.030;4.606;2022-09-03T21:36:19;22.50;99.90
43581;DHT22;29175;51.030;4.606;2022-09-03T21:39:05;22.50;99.90
43581;DHT22;29175;51.030;4.606;2022-09-03T21:44:41;22.50;99.90
43581;DHT22;29175;51.030;4.606;2022-09-03T21:47:11;22.40;99.90
43581;DHT22;29175;51.030;4.606;2022-09-03T21:50:17;22.40;99.90
43581;DHT22;29175;51.030;4.606;2022-09-03T21:52:57;22.30;99.90
43581;DHT22;29175;51.030;4.606;2022-09-03T21:55:40;22.30;99.90
43581;DHT22;29175;51.030;4.606;2022-09-03T22:01:00;22.20;99.90
43581;DHT22;29175;51.030;4.606;2022-09-03T22:03:30;22.20;99.90
43581;DHT22;29175;51.030;4.606;2022-09-03T22:06:39;22.20;99.90
43581;DHT22;29175;51.030;4.606;2022-09-03T22:09:12;22.20;99.90
43581;DHT22;29175;51.030;4.606;2022-09-03T22:14:17;22.10;99.90
43581;DHT22;29175;51.030;4.606;2022-09-03T22:17:10;22.00;99.90